Time;durP1;ratioP1;P1;durP2;ratioP2;P2;SDS_P1;SDS_P2;PMS_P1;PMS_P2;Temp;Humidity;BMP_temperature;BMP_pressure;BME280_temperature;BME280_humidity;BME280_pressure;Samples;Min_cycle;Max_cycle;Signal;HPM_P1;HPM_P2
2021/11/13 00:09:25;;;;;;;0.20;0.20;;;9.20;93.40;8.20;100942.00;;;;31278922;28;20116;-70
2021/11/13 00:24:27;;;;;;;0.20;0.20;;;9.20;93.80;8.20;100924.00;;;;31217258;28;20045;-70
2021/11/13 00:39:28;;;;;;;0.20;0.20;;;9.20;93.80;8.20;100904.00;;;;31354469;28;20105;-69
2021/11/13 00:54:30;;;;;;;0.25;0.25;;;9.20;93.90;8.20;100879.00;;;;31349890;28;20619;-69
2021/11/13 01:09:38;;;;;;;0.20;0.20;;;9.20;94.20;8.20;100879.00;;;;31250501;28;20538;-69
2021/11/13 01:24:47;;;;;;;0.65;0.65;;;9.30;94.70;8.30;100863.00;;;;31338362;28;20468;-69
2021/11/13 01:39:49;;;;;;;0.10;0.10;;;9.30;94.30;8.30;100860.00;;;;31274873;28;20442;-71
2021/11/13 01:54:50;;;;;;;0.17;0.17;;;9.30;94.70;8.40;100838.00;;;;31258043;28;20056;-71
2021/11/13 02:09:51;;;;;;;0.10;0.10;;;9.40;94.70;8.50;100819.00;;;;31309565;28;20517;-70
2021/11/13 02:24:52;;;;;;;0.47;0.47;;;9.60;95.30;8.60;100796.00;;;;31241793;28;20045;-71
2021/11/13 02:39:56;;;;;;;0.20;0.20;;;9.60;95.10;8.70;100803.00;;;;31241442;28;20071;-70
2021/11/13 02:54:59;;;;;;;0.10;0.10;;;9.70;95.60;8.80;100804.00;;;;31283218;28;20098;-70
2021/11/13 03:10:02;;;;;;;0.20;0.20;;;9.80;95.70;8.90;100797.00;;;;31241352;28;20079;-70
2021/11/13 03:25:13;;;;;;;0.57;0.57;;;9.80;95.50;8.90;100803.00;;;;31234317;28;20096;-69
2021/11/13 03:40:14;;;;;;;0.10;0.10;;;10.00;95.30;9.10;100796.00;;;;31335414;28;20047;-70
2021/11/13 03:55:15;;;;;;;0.10;0.10;;;10.10;95.30;9.10;100793.00;;;;31208426;28;20144;-69
2021/11/13 04:10:17;;;;;;;0.15;0.15;;;10.10;95.80;9.20;100785.00;;;;31135212;28;20053;-69
2021/11/13 04:25:20;;;;;;;0.10;0.10;;;10.10;95.40;9.20;100801.00;;;;31110124;28;20053;-69
2021/11/13 04:40:31;;;;;;;0.20;0.20;;;10.20;96.20;9.20;100797.00;;;;31057499;28;20042;-69
2021/11/13 04:55:32;;;;;;;0.20;0.20;;;10.20;95.90;9.30;100806.00;;;;31142939;28;20050;-69
2021/11/13 05:10:35;;;;;;;0.22;0.22;;;10.30;95.50;9.30;100818.00;;;;31103488;28;20042;-69
2021/11/13 05:25:36;;;;;;;0.60;0.60;;;10.30;95.60;9.40;100830.00;;;;31144399;28;20052;-71
2021/11/13 05:40:38;;;;;;;0.10;0.10;;;10.40;95.60;9.40;100836.00;;;;31117318;28;20052;-72
2021/11/13 05:55:40;;;;;;;0.10;0.10;;;10.40;95.60;9.50;100836.00;;;;31183426;28;20045;-73
2021/11/13 06:10:41;;;;;;;0.80;0.80;;;10.40;95.90;9.50;100851.00;;;;31243550;28;20049;-72
2021/11/13 06:25:45;;;;;;;0.27;0.27;;;10.50;95.70;9.50;100851.00;;;;31266348;28;20052;-74
2021/11/13 06:40:47;;;;;;;0.10;0.10;;;10.50;95.90;9.60;100865.00;;;;31366292;28;20052;-73
2021/11/13 06:55:51;;;;;;;0.10;0.10;;;10.60;96.20;9.60;100879.00;;;;31290728;28;20045;-72
2021/11/13 07:10:55;;;;;;;0.22;0.22;;;10.50;95.80;9.60;100896.00;;;;31305081;28;20067;-72
2021/11/13 07:25:57;;;;;;;0.20;0.20;;;10.60;95.90;9.60;100913.00;;;;31325815;28;20565;-71
2021/11/13 07:40:58;;;;;;;0.10;0.10;;;10.60;95.90;9.70;100922.00;;;;31354073;28;20041;-70
2021/11/13 07:56:01;;;;;;;0.20;0.20;;;10.80;95.90;9.80;100944.00;;;;31372074;28;20617;-69
2021/11/13 08:11:02;;;;;;;0.20;0.20;;;11.10;96.50;9.90;100953.00;;;;31358462;28;20719;-70
2021/11/13 08:26:04;;;;;;;0.10;0.10;;;10.90;95.90;10.00;100965.00;;;;31300989;28;20450;-70
2021/11/13 08:41:06;;;;;;;0.20;0.20;;;11.00;95.90;10.10;100970.00;;;;31351100;28;20075;-70
2021/11/13 08:56:07;;;;;;;0.10;0.10;;;11.10;95.80;10.30;100963.00;;;;31271935;28;20993;-69
2021/11/13 09:11:17;;;;;;;0.10;0.10;;;11.20;95.80;10.50;100973.00;;;;31322364;28;20090;-70
2021/11/13 09:26:22;;;;;;;0.10;0.10;;;11.70;95.50;10.80;100984.00;;;;31308589;28;20045;-70
2021/11/13 09:41:23;;;;;;;0.10;0.10;;;11.80;95.40;10.90;100998.00;;;;31316964;28;20564;-70
2021/11/13 09:56:25;;;;;;;0.30;0.30;;;12.10;95.50;11.20;101015.00;;;;31206273;28;20041;-70
2021/11/13 10:11:28;;;;;;;0.32;0.32;;;12.20;95.40;11.50;101020.00;;;;31208740;28;20155;-71
2021/11/13 10:26:41;;;;;;;0.10;0.10;;;12.40;95.20;11.60;101031.00;;;;31208961;28;20491;-70
2021/11/13 10:41:48;;;;;;;0.10;0.10;;;12.50;95.00;11.70;101041.00;;;;31148301;28;20156;-70
2021/11/13 10:57:01;;;;;;;0.10;0.10;;;12.50;95.40;11.80;101041.00;;;;31216434;28;20048;-70
2021/11/13 11:12:21;;;;;;;0.17;0.17;;;12.70;95.30;12.00;101037.00;;;;31184626;28;20050;-70
2021/11/13 11:44:19;;;;;;;0.10;0.10;;;13.20;94.30;12.50;101029.00;;;;31158095;28;20527;-69
2021/11/13 11:59:20;;;;;;;0.20;0.20;;;13.40;93.90;12.60;101043.00;;;;31158102;28;20505;-69
2021/11/13 12:14:32;;;;;;;0.10;0.10;;;14.80;94.60;12.80;101048.00;;;;31182917;28;20057;-69
2021/11/13 12:29:49;;;;;;;0.05;0.05;;;13.80;93.80;12.80;101072.00;;;;31179451;28;20139;-69
2021/11/13 12:45:00;;;;;;;0.17;0.17;;;14.00;93.00;13.30;101063.00;;;;31113013;28;20870;-68
2021/11/13 13:00:21;;;;;;;0.10;0.10;;;14.20;92.70;13.20;101071.00;;;;31131514;28;20042;-68
2021/11/13 13:15:23;;;;;;;0.20;0.20;;;14.10;92.80;13.30;101091.00;;;;31221518;28;20057;-68
2021/11/13 13:30:25;;;;;;;0.15;0.15;;;14.10;92.70;13.40;101091.00;;;;31250147;28;20081;-68
2021/11/13 13:45:29;;;;;;;0.10;0.10;;;14.30;92.50;13.80;101111.00;;;;31233703;28;20141;-68
2021/11/13 14:00:36;;;;;;;0.20;0.20;;;14.60;91.70;13.60;101120.00;;;;31249340;28;20053;-68
2021/11/13 14:15:40;;;;;;;0.10;0.10;;;14.50;91.10;13.00;101133.00;;;;31234684;28;20093;-72
2021/11/13 14:30:43;;;;;;;0.10;0.10;;;13.80;93.90;12.90;101150.00;;;;31212711;28;20123;-71
2021/11/13 14:45:45;;;;;;;0.20;0.20;;;13.80;92.90;12.80;101173.00;;;;31258104;28;20056;-70
2021/11/13 15:00:53;;;;;;;0.10;0.10;;;13.60;92.70;12.70;101167.00;;;;31252863;28;20082;-70
2021/11/13 15:15:55;;;;;;;0.10;0.10;;;13.60;92.90;12.50;101197.00;;;;31247747;28;20480;-70
2021/11/13 15:31:04;;;;;;;0.10;0.10;;;13.30;93.60;12.30;101198.00;;;;31203980;28;20055;-69
2021/11/13 15:46:10;;;;;;;0.10;0.10;;;13.20;93.80;12.20;101216.00;;;;31226288;28;20577;-70
2021/11/13 16:01:13;;;;;;;0.20;0.20;;;13.10;94.20;11.90;101228.00;;;;31235197;28;20074;-69
2021/11/13 16:16:14;;;;;;;0.10;0.10;;;12.90;93.50;11.60;101242.00;;;;31227219;28;20041;-70
2021/11/13 16:31:16;;;;;;;0.85;0.85;;;13.20;94.10;11.20;101259.00;;;;31220758;28;20049;-70
2021/11/13 16:46:20;;;;;;;0.13;0.13;;;12.20;94.30;10.90;101270.00;;;;31248280;28;20037;-71
2021/11/13 17:02:12;;;;;;;0.20;0.20;;;11.70;94.20;10.50;101305.00;;;;31213464;28;20183;-71
2021/11/13 17:17:14;;;;;;;0.30;0.30;;;11.60;94.70;10.50;101323.00;;;;31249619;28;20053;-70
2021/11/13 17:32:16;;;;;;;0.10;0.10;;;11.60;94.30;10.50;101336.00;;;;31261497;28;20115;-70
2021/11/13 17:47:19;;;;;;;0.30;0.30;;;11.50;94.80;10.40;101365.00;;;;31237855;28;20045;-70
2021/11/13 18:02:25;;;;;;;0.43;0.43;;;11.40;94.00;10.30;101374.00;;;;31246668;28;20461;-70
2021/11/13 18:17:28;;;;;;;0.17;0.17;;;11.30;94.50;10.20;101404.00;;;;31255001;28;20041;-70
2021/11/13 18:32:30;;;;;;;0.10;0.10;;;11.10;94.60;10.00;101406.00;;;;31249107;28;20043;-71
2021/11/13 18:47:41;;;;;;;0.20;0.20;;;11.10;94.50;9.90;101400.00;;;;31246995;28;20063;-70
2021/11/13 19:02:42;;;;;;;0.20;0.20;;;10.80;94.30;9.60;101411.00;;;;31228388;28;20045;-71
2021/11/13 19:17:43;;;;;;;0.40;0.40;;;10.60;94.30;9.40;101419.00;;;;31214115;28;20045;-70
2021/11/13 19:32:46;;;;;;;0.10;0.10;;;10.30;94.10;9.20;101443.00;;;;31233992;28;20508;-70
2021/11/13 19:47:47;;;;;;;0.32;0.32;;;10.20;94.10;8.90;101458.00;;;;31213308;28;20049;-70
2021/11/13 20:02:49;;;;;;;0.55;0.55;;;10.40;95.10;8.80;101461.00;;;;31248736;28;20060;-70
2021/11/13 20:17:51;;;;;;;0.35;0.35;;;9.80;94.40;8.60;101479.00;;;;31236622;28;20044;-70
2021/11/13 20:32:52;;;;;;;0.17;0.17;;;9.80;94.50;8.70;101494.00;;;;31206951;28;20113;-71
2021/11/13 20:47:54;;;;;;;0.15;0.15;;;9.80;94.40;8.80;101518.00;;;;31237423;28;20154;-70
2021/11/13 21:02:55;;;;;;;0.15;0.15;;;9.80;94.20;8.60;101519.00;;;;31259319;28;20056;-71
2021/11/13 21:17:56;;;;;;;0.10;0.10;;;9.70;94.50;8.70;101529.00;;;;31250776;28;20091;-71
2021/11/13 21:32:58;;;;;;;0.10;0.10;;;9.70;95.00;8.70;101546.00;;;;31244009;28;20072;-71
2021/11/13 21:48:02;;;;;;;0.10;0.10;;;9.70;94.90;8.80;101541.00;;;;31256528;28;20045;-70
2021/11/13 22:03:04;;;;;;;0.43;0.43;;;9.90;94.50;8.80;101547.00;;;;31257887;28;21739;-71
2021/11/13 22:18:06;;;;;;;0.22;0.22;;;9.70;94.60;8.60;101554.00;;;;31261485;28;20067;-70
2021/11/13 22:33:14;;;;;;;0.20;0.20;;;9.50;94.70;8.40;101556.00;;;;31257816;28;20072;-70
2021/11/13 22:48:19;;;;;;;0.20;0.20;;;9.50;95.20;8.30;101577.00;;;;31228942;28;20053;-70
2021/11/13 23:03:30;;;;;;;0.20;0.20;;;9.40;95.30;8.20;101595.00;;;;31243052;28;20156;-69
2021/11/13 23:18:32;;;;;;;0.35;0.35;;;8.70;94.50;8.10;101596.00;;;;31260076;28;20048;-69
2021/11/13 23:33:37;;;;;;;0.43;0.43;;;9.20;94.80;8.10;101609.00;;;;31240161;28;20045;-69
2021/11/13 23:48:40;;;;;;;0.20;0.20;;;9.20;95.30;7.90;101602.00;;;;31243875;28;20052;-70
